createdAt,value
2022-11-30T00:01:36.043Z,32.90
2022-11-30T00:04:03.813Z,35.20
2022-11-30T00:06:31.563Z,33.30
2022-11-30T00:08:59.626Z,33.70
2022-11-30T00:11:31.185Z,31.80
2022-11-30T00:13:59.007Z,32.00
2022-11-30T00:16:30.146Z,33.60
2022-11-30T00:18:58.161Z,32.80
2022-11-30T00:21:26.133Z,28.30
2022-11-30T00:23:54.588Z,29.40
2022-11-30T00:26:25.551Z,31.80
2022-11-30T00:28:53.624Z,29.30
2022-11-30T00:31:22.276Z,28.90
2022-11-30T00:33:53.180Z,29.40
2022-11-30T00:36:24.489Z,28.00
2022-11-30T00:38:52.306Z,28.90
2022-11-30T00:41:22.989Z,26.90
2022-11-30T00:43:53.514Z,27.60
2022-11-30T00:46:21.584Z,28.80
2022-11-30T00:48:52.617Z,26.30
2022-11-30T00:51:20.966Z,28.00
2022-11-30T00:53:51.342Z,27.00
2022-11-30T00:56:19.582Z,27.40
2022-11-30T00:58:47.475Z,27.00
2022-11-30T01:01:15.365Z,30.20
2022-11-30T01:03:48.424Z,28.50
2022-11-30T01:06:19.570Z,25.30
2022-11-30T01:08:50.773Z,30.90
2022-11-30T01:11:25.546Z,29.40
2022-11-30T01:13:55.762Z,30.70
2022-11-30T01:16:30.345Z,30.00
2022-11-30T01:19:00.606Z,28.70
2022-11-30T01:21:31.953Z,28.10
2022-11-30T01:23:59.690Z,30.50
2022-11-30T01:26:30.262Z,30.20
2022-11-30T01:28:58.234Z,30.20
2022-11-30T01:31:26.093Z,29.90
2022-11-30T01:33:59.172Z,28.10
2022-11-30T01:36:27.213Z,28.00
2022-11-30T01:38:59.410Z,29.30
2022-11-30T01:41:31.575Z,28.30
2022-11-30T01:44:07.523Z,30.00
2022-11-30T01:46:59.345Z,26.90
2022-11-30T01:49:36.508Z,29.30
2022-11-30T01:52:16.289Z,25.80
2022-11-30T01:54:59.839Z,27.20
2022-11-30T01:57:38.768Z,25.60
2022-11-30T02:00:12.678Z,25.10
2022-11-30T02:03:13.950Z,27.20
2022-11-30T02:05:44.982Z,26.30
2022-11-30T02:08:12.942Z,26.90
2022-11-30T02:10:54.273Z,25.00
2022-11-30T02:13:49.030Z,25.10
2022-11-30T02:17:03.432Z,23.30
2022-11-30T02:19:49.808Z,25.00
2022-11-30T02:22:45.012Z,25.20
2022-11-30T02:25:45.607Z,24.10
2022-11-30T02:28:54.915Z,25.20
2022-11-30T02:31:34.976Z,27.70
2022-11-30T02:34:08.017Z,27.20
2022-11-30T02:36:38.490Z,28.40
2022-11-30T02:39:10.248Z,30.70
2022-11-30T02:41:41.639Z,30.60
2022-11-30T02:44:13.472Z,25.60
2022-11-30T02:47:00.049Z,25.10
2022-11-30T02:49:35.259Z,25.00
2022-11-30T02:52:07.890Z,26.10
2022-11-30T02:54:35.705Z,24.40
2022-11-30T02:57:06.268Z,24.20
2022-11-30T02:59:34.050Z,23.10
2022-11-30T03:02:02.092Z,23.90
2022-11-30T03:04:32.068Z,24.50
2022-11-30T03:06:59.926Z,23.10
2022-11-30T03:09:27.698Z,26.20
2022-11-30T03:11:58.302Z,25.30
2022-11-30T03:14:26.303Z,26.60
2022-11-30T03:16:54.455Z,24.40
2022-11-30T03:19:22.432Z,23.60
2022-11-30T03:21:52.952Z,24.30
2022-11-30T03:24:20.942Z,27.10
2022-11-30T03:26:48.780Z,25.10
2022-11-30T03:29:16.911Z,28.20
2022-11-30T03:31:45.972Z,25.00
2022-11-30T03:34:13.778Z,25.40
2022-11-30T03:36:41.560Z,25.10
2022-11-30T03:39:11.871Z,29.60
2022-11-30T03:41:42.501Z,27.50
2022-11-30T03:44:10.327Z,25.30
2022-11-30T03:46:38.141Z,27.90
2022-11-30T03:49:11.221Z,28.30
2022-11-30T03:51:39.006Z,26.40
2022-11-30T03:54:09.376Z,25.60
2022-11-30T03:56:39.693Z,27.30
2022-11-30T03:59:07.467Z,27.50
2022-11-30T04:01:39.567Z,27.50
2022-11-30T04:04:08.870Z,27.30
2022-11-30T04:06:36.669Z,27.10
2022-11-30T04:09:07.212Z,27.70
2022-11-30T04:11:38.092Z,26.70
2022-11-30T04:14:06.165Z,27.30
2022-11-30T04:16:33.983Z,26.70
2022-11-30T04:19:04.996Z,27.90
2022-11-30T04:21:32.774Z,27.60
2022-11-30T04:24:00.676Z,26.50
2022-11-30T04:26:28.448Z,26.90
2022-11-30T04:28:56.428Z,28.20
2022-11-30T04:31:24.463Z,25.90
2022-11-30T04:33:56.270Z,25.80
2022-11-30T04:36:24.035Z,24.60
2022-11-30T04:38:51.817Z,27.00
2022-11-30T04:41:19.768Z,26.00
2022-11-30T04:43:47.810Z,25.20
2022-11-30T04:46:15.856Z,25.30
2022-11-30T04:48:45.974Z,27.10
2022-11-30T04:51:14.037Z,24.40
2022-11-30T04:53:43.399Z,25.20
2022-11-30T04:56:14.287Z,28.00
2022-11-30T04:58:42.269Z,27.70
2022-11-30T05:01:13.327Z,27.40
2022-11-30T05:03:41.260Z,27.40
2022-11-30T05:06:09.033Z,27.90
2022-11-30T05:08:36.782Z,27.30
2022-11-30T05:11:04.748Z,26.10
2022-11-30T05:13:32.731Z,28.80
2022-11-30T05:16:02.123Z,28.50
2022-11-30T05:18:33.040Z,26.80
2022-11-30T05:21:04.436Z,26.90
2022-11-30T05:23:32.626Z,26.10
2022-11-30T05:26:05.714Z,27.50
2022-11-30T05:28:36.270Z,24.70
2022-11-30T05:31:07.721Z,29.20
2022-11-30T05:33:35.874Z,27.70
2022-11-30T05:36:10.656Z,28.00
2022-11-30T05:38:39.075Z,29.50
2022-11-30T05:41:07.069Z,26.60
2022-11-30T05:43:36.485Z,29.50
2022-11-30T05:46:07.134Z,31.70
2022-11-30T05:48:38.013Z,29.90
2022-11-30T05:51:09.952Z,28.40
2022-11-30T05:53:40.914Z,28.30
2022-11-30T05:56:15.520Z,31.40
2022-11-30T05:58:49.905Z,28.60
2022-11-30T06:01:36.190Z,32.60
2022-11-30T06:04:08.843Z,28.90
2022-11-30T06:06:37.109Z,30.40
2022-11-30T06:09:04.977Z,30.30
2022-11-30T06:11:34.275Z,31.90
2022-11-30T06:14:02.346Z,30.80
2022-11-30T06:16:30.258Z,34.70
2022-11-30T06:18:58.123Z,33.40
2022-11-30T06:21:25.947Z,31.00
2022-11-30T06:23:53.670Z,29.60
2022-11-30T06:26:21.474Z,33.00
2022-11-30T06:28:49.338Z,30.40
2022-11-30T06:31:17.283Z,30.70
2022-11-30T06:33:45.113Z,34.20
2022-11-30T06:36:12.885Z,31.30
2022-11-30T06:38:40.707Z,28.30
2022-11-30T06:41:10.546Z,30.40
2022-11-30T06:43:39.691Z,30.30
2022-11-30T06:46:08.102Z,28.10
2022-11-30T06:48:36.540Z,30.10
2022-11-30T06:51:09.147Z,29.00
2022-11-30T06:53:37.842Z,26.30
2022-11-30T06:56:10.465Z,31.30
2022-11-30T06:58:39.882Z,33.10
2022-11-30T07:01:10.934Z,34.90
2022-11-30T07:03:40.093Z,32.00
2022-11-30T07:06:13.416Z,26.90
2022-11-30T07:08:43.053Z,29.20
2022-11-30T07:11:12.352Z,27.30
2022-11-30T07:13:40.316Z,28.90
2022-11-30T07:16:11.546Z,30.10
2022-11-30T07:18:39.735Z,28.30
2022-11-30T07:21:08.114Z,31.60
2022-11-30T07:23:56.978Z,28.60
2022-11-30T07:26:25.863Z,24.40
2022-11-30T07:28:55.451Z,26.30
2022-11-30T07:31:26.551Z,26.30
2022-11-30T07:33:55.531Z,27.60
2022-11-30T07:36:26.421Z,26.20
2022-11-30T07:38:55.328Z,26.10
2022-11-30T07:41:23.953Z,29.10
2022-11-30T07:43:51.995Z,28.50
2022-11-30T07:46:20.402Z,29.10
2022-11-30T07:48:50.213Z,29.10
2022-11-30T07:51:21.020Z,28.60
2022-11-30T07:53:50.747Z,28.40
2022-11-30T07:56:21.095Z,28.90
2022-11-30T07:58:51.668Z,30.30
2022-11-30T08:01:22.765Z,28.50
2022-11-30T08:03:52.445Z,30.80
2022-11-30T08:06:29.434Z,31.10
2022-11-30T08:09:00.138Z,31.10
2022-11-30T08:11:31.723Z,30.80
2022-11-30T08:14:00.435Z,30.30
2022-11-30T08:16:31.184Z,28.80
2022-11-30T08:18:59.210Z,32.60
2022-11-30T08:21:26.980Z,28.80
2022-11-30T08:23:57.022Z,29.50
2022-11-30T08:26:32.225Z,31.80
2022-11-30T08:29:02.030Z,32.80
2022-11-30T08:31:33.439Z,30.90
2022-11-30T08:34:08.300Z,33.70
2022-11-30T08:36:36.819Z,33.20
2022-11-30T08:39:07.913Z,29.60
2022-11-30T08:41:36.938Z,28.10
2022-11-30T08:44:06.570Z,33.00
2022-11-30T08:46:50.858Z,34.80
2022-11-30T08:49:23.061Z,31.90
2022-11-30T08:54:46.784Z,31.20
2022-11-30T08:57:17.673Z,32.50
2022-11-30T08:59:48.479Z,33.80
2022-11-30T09:02:19.638Z,36.70
2022-11-30T09:04:49.796Z,36.00
2022-11-30T09:07:18.458Z,31.30
2022-11-30T09:09:47.207Z,31.70
2022-11-30T09:12:15.244Z,32.20
2022-11-30T09:14:43.048Z,34.10
2022-11-30T09:17:11.680Z,31.40
2022-11-30T09:19:40.303Z,32.00
2022-11-30T09:22:08.732Z,29.70
2022-11-30T09:24:38.552Z,32.10
2022-11-30T09:27:06.594Z,30.60
2022-11-30T09:29:37.430Z,30.70
2022-11-30T09:32:05.908Z,31.30
2022-11-30T09:34:35.117Z,32.20
2022-11-30T09:37:03.096Z,30.90
2022-11-30T09:39:31.266Z,31.70
2022-11-30T09:42:34.947Z,31.60
2022-11-30T09:45:19.577Z,33.50
2022-11-30T09:48:21.199Z,30.80
2022-11-30T09:50:51.701Z,35.30
2022-11-30T09:53:40.619Z,33.10
2022-11-30T09:56:31.749Z,30.90
2022-11-30T09:59:15.707Z,30.70
2022-11-30T10:01:46.208Z,32.20
2022-11-30T10:04:23.565Z,31.60
2022-11-30T10:07:22.870Z,34.20
2022-11-30T10:13:24.469Z,31.50
2022-11-30T10:16:14.532Z,30.70
2022-11-30T10:18:48.672Z,29.30
2022-11-30T10:22:01.735Z,28.70
2022-11-30T10:25:11.897Z,28.80
2022-11-30T10:28:12.647Z,28.30
2022-11-30T10:30:50.563Z,29.40
2022-11-30T10:33:24.146Z,36.90
2022-11-30T10:35:55.789Z,26.80
2022-11-30T10:38:30.800Z,26.70
2022-11-30T10:41:09.265Z,29.80
2022-11-30T10:43:46.868Z,28.80
2022-11-30T10:46:31.636Z,31.90
2022-11-30T10:49:07.935Z,31.30
2022-11-30T10:51:41.290Z,31.50
2022-11-30T10:54:17.474Z,31.20
2022-11-30T10:56:46.516Z,31.40
2022-11-30T10:59:31.873Z,32.30
2022-11-30T11:01:59.977Z,38.90
2022-11-30T11:04:28.020Z,47.00
2022-11-30T11:07:07.524Z,33.10
2022-11-30T11:09:37.594Z,34.60
2022-11-30T11:12:19.403Z,30.70
2022-11-30T11:14:49.003Z,32.70
2022-11-30T11:17:19.950Z,31.90
2022-11-30T11:19:51.122Z,33.70
2022-11-30T11:22:23.190Z,31.40
2022-11-30T11:24:56.219Z,34.80
2022-11-30T11:27:29.382Z,32.20
2022-11-30T11:30:08.326Z,32.40
2022-11-30T11:32:36.445Z,35.50
2022-11-30T11:35:35.886Z,30.80
2022-11-30T11:38:18.525Z,31.10
2022-11-30T11:41:06.198Z,34.20
2022-11-30T11:43:38.417Z,31.30
2022-11-30T11:46:14.300Z,31.20
2022-11-30T11:48:56.776Z,31.50
2022-11-30T11:51:40.549Z,32.50
2022-11-30T11:54:39.685Z,33.00
2022-11-30T11:57:15.806Z,31.70
2022-11-30T12:00:16.690Z,34.20
2022-11-30T12:03:14.952Z,31.20
2022-11-30T12:05:49.470Z,32.70
2022-11-30T12:08:31.263Z,31.40
2022-11-30T12:11:10.987Z,40.10
2022-11-30T12:13:42.170Z,35.00
2022-11-30T12:16:17.440Z,37.00
2022-11-30T12:19:20.634Z,40.40
2022-11-30T12:22:26.482Z,34.80
2022-11-30T12:25:12.962Z,35.10
2022-11-30T12:28:18.675Z,33.70
2022-11-30T12:30:59.339Z,34.00
2022-11-30T12:33:55.342Z,37.90
2022-11-30T12:36:42.922Z,36.60
2022-11-30T12:39:45.555Z,34.00
2022-11-30T12:42:38.202Z,33.70
2022-11-30T12:45:17.327Z,33.40
2022-11-30T12:48:29.690Z,35.40
2022-11-30T12:51:06.927Z,31.60
2022-11-30T12:53:56.908Z,39.20
2022-11-30T12:56:52.316Z,30.40
2022-11-30T12:59:39.233Z,32.50
2022-11-30T13:02:47.452Z,32.90
2022-11-30T13:05:24.932Z,31.20
2022-11-30T13:08:11.243Z,33.50
2022-11-30T13:10:46.394Z,33.40
2022-11-30T13:13:22.646Z,33.20
2022-11-30T13:15:50.580Z,36.10
2022-11-30T13:18:22.766Z,42.00
2022-11-30T13:21:01.813Z,36.00
2022-11-30T13:23:45.227Z,36.00
2022-11-30T13:26:16.429Z,33.60
2022-11-30T13:29:02.586Z,30.30
2022-11-30T13:31:34.686Z,31.90
2022-11-30T13:34:02.495Z,33.00
2022-11-30T13:36:38.902Z,34.60
2022-11-30T13:39:22.139Z,32.60
2022-11-30T13:42:25.882Z,34.40
2022-11-30T13:44:55.598Z,30.90
2022-11-30T13:47:29.441Z,34.70
2022-11-30T13:50:25.504Z,34.50
2022-11-30T13:52:59.093Z,34.10
2022-11-30T13:55:36.114Z,33.30
2022-11-30T13:58:07.741Z,33.60
2022-11-30T14:00:35.708Z,31.70
2022-11-30T14:03:22.238Z,30.70
2022-11-30T14:05:52.310Z,30.90
2022-11-30T14:08:23.282Z,27.80
2022-11-30T14:11:15.479Z,27.00
2022-11-30T14:13:45.263Z,28.60
2022-11-30T14:16:28.027Z,29.50
2022-11-30T14:18:57.617Z,30.60
2022-11-30T14:21:35.003Z,31.60
2022-11-30T14:24:22.094Z,27.70
2022-11-30T14:26:52.094Z,28.10
2022-11-30T14:29:25.273Z,29.90
2022-11-30T14:32:12.745Z,26.30
2022-11-30T14:34:46.084Z,29.20
2022-11-30T14:37:27.882Z,31.30
2022-11-30T14:40:01.434Z,30.30
2022-11-30T14:42:32.040Z,28.90
2022-11-30T14:45:00.765Z,29.00
2022-11-30T14:47:36.545Z,28.80
2022-11-30T14:50:06.318Z,28.40
2022-11-30T14:53:03.265Z,30.80
2022-11-30T14:55:49.996Z,28.90
2022-11-30T14:58:40.192Z,31.30
2022-11-30T15:01:31.261Z,34.80
2022-11-30T15:04:10.664Z,32.30
2022-11-30T15:06:41.285Z,33.60
2022-11-30T15:09:29.787Z,33.90
2022-11-30T15:11:58.963Z,35.60
2022-11-30T15:14:27.862Z,31.90
2022-11-30T15:16:58.910Z,33.70
2022-11-30T15:19:33.471Z,34.50
2022-11-30T15:22:01.983Z,34.10
2022-11-30T15:24:30.987Z,36.90
2022-11-30T15:27:14.555Z,35.40
2022-11-30T15:29:54.670Z,35.30
2022-11-30T15:32:28.472Z,37.60
2022-11-30T15:35:01.664Z,39.50
2022-11-30T15:37:41.364Z,39.20
2022-11-30T15:40:15.857Z,40.10
2022-11-30T15:42:49.908Z,42.30
2022-11-30T15:45:25.499Z,40.30
2022-11-30T15:47:57.643Z,38.30
2022-11-30T15:50:39.703Z,38.60
2022-11-30T15:53:32.760Z,42.20
2022-11-30T15:56:05.453Z,43.60
2022-11-30T15:58:46.087Z,43.10
2022-11-30T16:01:26.127Z,42.60
2022-11-30T16:04:05.088Z,40.00
2022-11-30T16:06:38.698Z,43.50
2022-11-30T16:09:21.027Z,43.00
2022-11-30T16:11:54.558Z,43.20
2022-11-30T16:14:24.511Z,41.30
2022-11-30T16:16:55.449Z,44.60
2022-11-30T16:19:23.254Z,43.10
2022-11-30T16:21:52.250Z,45.90
2022-11-30T16:24:23.103Z,42.80
2022-11-30T16:26:51.972Z,44.40
2022-11-30T16:29:20.908Z,48.40
2022-11-30T16:31:50.028Z,47.30
2022-11-30T16:34:17.892Z,48.50
2022-11-30T16:36:46.419Z,51.70
2022-11-30T16:39:15.256Z,51.70
2022-11-30T16:41:46.343Z,52.70
2022-11-30T16:44:15.421Z,54.20
2022-11-30T16:46:43.462Z,49.30
2022-11-30T16:49:13.911Z,46.10
2022-11-30T16:51:42.953Z,48.80
2022-11-30T16:54:16.022Z,46.30
2022-11-30T16:56:46.959Z,47.10
2022-11-30T16:59:17.143Z,52.70
2022-11-30T17:01:54.127Z,54.70
2022-11-30T17:04:26.478Z,64.40
2022-11-30T17:07:01.913Z,56.40
2022-11-30T17:09:35.531Z,52.40
2022-11-30T17:12:03.702Z,48.80
2022-11-30T17:14:31.537Z,53.10
2022-11-30T17:17:03.229Z,54.30
2022-11-30T17:19:32.044Z,49.10
2022-11-30T17:22:00.072Z,55.20
2022-11-30T17:24:28.086Z,48.60
2022-11-30T17:26:56.898Z,57.00
2022-11-30T17:29:25.311Z,53.90
2022-11-30T17:31:54.790Z,58.40
2022-11-30T17:34:22.735Z,53.80
2022-11-30T17:36:52.230Z,53.70
2022-11-30T17:39:20.573Z,54.10
2022-11-30T17:41:49.500Z,67.70
2022-11-30T17:44:18.556Z,58.50
2022-11-30T17:46:48.618Z,56.90
2022-11-30T17:49:17.561Z,59.00
2022-11-30T17:51:45.615Z,61.50
2022-11-30T17:54:13.488Z,60.60
2022-11-30T17:56:43.912Z,61.70
2022-11-30T17:59:11.902Z,69.50
2022-11-30T18:01:41.552Z,71.30
2022-11-30T18:04:10.760Z,64.10
2022-11-30T18:06:38.558Z,67.30
2022-11-30T18:09:06.293Z,71.50
2022-11-30T18:11:34.389Z,62.50
2022-11-30T18:14:06.112Z,60.60
2022-11-30T18:16:37.382Z,58.00
2022-11-30T18:19:13.119Z,57.20
2022-11-30T18:21:46.138Z,57.00
2022-11-30T18:24:13.931Z,77.20
2022-11-30T18:26:41.718Z,74.20
2022-11-30T18:29:10.966Z,55.40
2022-11-30T18:31:38.786Z,54.10
2022-11-30T18:34:07.949Z,53.50
2022-11-30T18:36:35.741Z,53.80
2022-11-30T18:39:03.796Z,50.00
2022-11-30T18:41:31.813Z,54.10
2022-11-30T18:43:59.633Z,53.10
2022-11-30T18:46:29.930Z,52.30
2022-11-30T18:49:00.018Z,50.90
2022-11-30T18:51:31.456Z,50.70
2022-11-30T18:54:03.416Z,48.50
2022-11-30T18:56:35.370Z,53.70
2022-11-30T18:59:07.970Z,55.70
2022-11-30T19:01:37.320Z,49.50
2022-11-30T19:04:08.902Z,45.80
2022-11-30T19:06:39.772Z,47.00
2022-11-30T19:09:11.517Z,50.60
2022-11-30T19:11:41.394Z,46.40
2022-11-30T19:14:14.175Z,41.90
2022-11-30T19:16:43.255Z,45.00
2022-11-30T19:19:14.643Z,39.50
2022-11-30T19:21:45.370Z,39.90
2022-11-30T19:24:14.988Z,37.00
2022-11-30T19:26:43.001Z,42.70
2022-11-30T19:29:12.925Z,39.20
2022-11-30T19:31:41.378Z,40.10
2022-11-30T19:34:12.990Z,43.60
2022-11-30T19:36:41.989Z,45.90
2022-11-30T19:39:11.130Z,42.90
2022-11-30T19:41:40.084Z,42.70
2022-11-30T19:44:14.939Z,56.80
2022-11-30T19:46:42.797Z,38.80
2022-11-30T19:49:12.148Z,40.80
2022-11-30T19:51:41.064Z,41.20
2022-11-30T19:54:09.050Z,38.90
2022-11-30T19:56:39.756Z,38.70
2022-11-30T19:59:07.733Z,36.10
2022-11-30T20:01:36.698Z,40.00
2022-11-30T20:04:05.877Z,39.80
2022-11-30T20:06:37.531Z,39.60
2022-11-30T20:09:08.201Z,45.50
2022-11-30T20:11:37.905Z,47.50
2022-11-30T20:14:07.282Z,43.90
2022-11-30T20:16:37.281Z,45.00
2022-11-30T20:19:05.833Z,44.30
2022-11-30T20:21:36.120Z,37.50
2022-11-30T20:24:08.537Z,44.70
2022-11-30T20:26:43.483Z,56.50
2022-11-30T20:29:17.579Z,41.30
2022-11-30T20:31:48.720Z,39.70
2022-11-30T20:34:18.342Z,37.50
2022-11-30T20:36:48.042Z,39.70
2022-11-30T20:39:16.092Z,37.50
2022-11-30T20:41:44.151Z,38.60
2022-11-30T20:44:15.889Z,37.30
2022-11-30T20:46:44.088Z,35.70
2022-11-30T20:49:22.485Z,33.50
2022-11-30T20:51:50.577Z,35.10
2022-11-30T20:54:20.095Z,33.20
2022-11-30T20:56:51.087Z,32.90
2022-11-30T20:59:23.920Z,35.20
2022-11-30T21:01:55.834Z,35.10
2022-11-30T21:04:26.217Z,32.30
2022-11-30T21:06:56.295Z,34.60
2022-11-30T21:09:24.269Z,35.50
2022-11-30T21:11:53.067Z,41.40
2022-11-30T21:14:20.878Z,41.80
2022-11-30T21:16:48.896Z,35.60
2022-11-30T21:19:18.181Z,32.80
2022-11-30T21:21:46.273Z,41.00
2022-11-30T21:24:14.281Z,41.70
2022-11-30T21:26:43.754Z,40.20
2022-11-30T21:29:16.819Z,38.10
2022-11-30T21:31:47.075Z,37.60
2022-11-30T21:34:15.119Z,35.60
2022-11-30T21:36:43.119Z,34.80
2022-11-30T21:39:15.237Z,38.70
2022-11-30T21:41:44.690Z,36.60
2022-11-30T21:44:15.190Z,38.00
2022-11-30T21:46:48.417Z,38.60
2022-11-30T21:49:17.715Z,41.90
2022-11-30T21:51:45.566Z,38.40
2022-11-30T21:54:14.971Z,34.40
2022-11-30T21:56:47.269Z,34.80
2022-11-30T21:59:15.327Z,40.20
2022-11-30T22:01:45.501Z,67.20
2022-11-30T22:04:15.010Z,46.20
2022-11-30T22:06:44.609Z,41.60
2022-11-30T22:09:16.649Z,38.20
2022-11-30T22:11:46.856Z,38.50
2022-11-30T22:14:16.901Z,39.40
2022-11-30T22:16:47.731Z,36.60
2022-11-30T22:19:17.900Z,41.90
2022-11-30T22:21:49.955Z,35.40
2022-11-30T22:24:19.904Z,39.10
2022-11-30T22:26:49.853Z,39.70
2022-11-30T22:29:22.741Z,36.30
2022-11-30T22:31:53.631Z,39.80
2022-11-30T22:34:22.867Z,40.40
2022-11-30T22:36:50.677Z,38.20
2022-11-30T22:39:21.248Z,34.50
2022-11-30T22:41:55.565Z,37.10
2022-11-30T22:44:27.295Z,34.90
2022-11-30T22:46:56.891Z,36.50
2022-11-30T22:49:24.939Z,38.50
2022-11-30T22:51:54.296Z,40.00
2022-11-30T22:54:22.326Z,35.80
2022-11-30T22:56:50.075Z,37.00
2022-11-30T22:59:18.634Z,32.90
2022-11-30T23:01:51.010Z,36.20
2022-11-30T23:04:23.026Z,37.20
2022-11-30T23:06:52.768Z,33.20
2022-11-30T23:09:23.728Z,34.50
2022-11-30T23:11:53.752Z,34.30
2022-11-30T23:14:21.543Z,36.00
2022-11-30T23:16:50.667Z,49.70
2022-11-30T23:19:18.731Z,38.90
2022-11-30T23:21:51.343Z,36.90
2022-11-30T23:24:22.068Z,33.90
2022-11-30T23:26:51.465Z,33.70
2022-11-30T23:29:19.260Z,33.40
2022-11-30T23:31:50.342Z,34.00
2022-11-30T23:34:22.461Z,34.00
2022-11-30T23:36:52.022Z,34.90
2022-11-30T23:39:21.569Z,33.50
2022-11-30T23:41:52.259Z,34.80
2022-11-30T23:44:20.005Z,34.90
2022-11-30T23:46:51.263Z,37.30
2022-11-30T23:49:21.689Z,32.30
2022-11-30T23:51:49.434Z,34.60
2022-11-30T23:54:18.531Z,34.40
2022-11-30T23:56:46.314Z,32.60
2022-11-30T23:59:15.065Z,37.80
